Time;durP1;ratioP1;P1;durP2;ratioP2;P2;SDS_P1;SDS_P2;PMS_P1;PMS_P2;Temp;Humidity;BMP_temperature;BMP_pressure;BME280_temperature;BME280_humidity;BME280_pressure;Samples;Min_cycle;Max_cycle;Signal;HPM_P1;HPM_P2
2021/01/17 00:00:04;;;;;;;4.68;4.28;;;;;;;0.32;58.93;101426.19;685745;28;22504;-65
2021/01/17 00:00:34;;;;;;;4.50;4.10;;;;;;;0.33;58.92;101425.25;683176;28;137682;-62
2021/01/17 00:00:55;;;;;;;4.28;3.85;;;;;;;0.33;58.76;101435.03;685741;28;44864;-63
2021/01/17 00:01:16;;;;;;;4.50;4.10;;;;;;;0.32;58.68;101425.34;686918;28;23112;-64
2021/01/17 00:01:44;;;;;;;4.68;4.03;;;;;;;0.33;58.79;101427.06;685790;28;46221;-62
2021/01/17 00:02:05;;;;;;;6.03;4.60;;;;;;;0.33;58.98;101424.41;682264;28;158368;-63
2021/01/17 00:02:27;;;;;;;7.95;5.38;;;;;;;0.33;58.83;101425.25;686778;28;22341;-63
2021/01/17 00:02:48;;;;;;;6.90;4.82;;;;;;;0.33;58.67;101424.41;686218;28;44696;-63
2021/01/17 00:03:10;;;;;;;6.38;4.88;;;;;;;0.30;58.51;101430.75;686351;28;46465;-62
2021/01/17 00:03:31;;;;;;;7.03;5.15;;;;;;;0.32;58.62;101420.00;687007;28;23451;-61
2021/01/17 00:03:54;;;;;;;5.53;4.63;;;;;;;0.32;58.30;101428.00;687705;28;933;-62
2021/01/17 00:04:16;;;;;;;5.57;4.72;;;;;;;0.32;58.37;101430.66;686188;28;45292;-63
2021/01/17 00:04:37;;;;;;;5.05;4.32;;;;;;;0.31;58.52;101424.50;688074;28;951;-62
2021/01/17 00:04:58;;;;;;;4.95;3.92;;;;;;;0.31;58.62;101421.84;686617;28;40827;-63
2021/01/17 00:05:23;;;;;;;4.57;3.72;;;;;;;0.31;58.55;101419.19;687240;28;22404;-63
2021/01/17 00:05:46;;;;;;;5.55;3.80;;;;;;;0.29;58.55;101414.88;685965;28;61615;-64
2021/01/17 00:06:08;;;;;;;4.50;3.80;;;;;;;0.31;58.72;101416.53;685405;28;39820;-64
2021/01/17 00:06:29;;;;;;;4.72;3.95;;;;;;;0.31;58.67;101421.84;687284;28;23455;-64
2021/01/17 00:06:53;;;;;;;4.68;3.90;;;;;;;0.31;58.66;101413.84;686374;28;44508;-64
2021/01/17 00:07:15;;;;;;;4.18;3.78;;;;;;;0.32;58.57;101417.34;685001;28;90502;-64
2021/01/17 00:07:37;;;;;;;4.00;3.58;;;;;;;0.30;58.60;101412.13;686031;28;46552;-64
2021/01/17 00:07:59;;;;;;;3.53;3.22;;;;;;;0.29;58.18;101418.41;686719;28;46270;-64
2021/01/17 00:08:20;;;;;;;3.88;3.47;;;;;;;0.30;58.05;101416.59;687328;28;23377;-62
2021/01/17 00:08:42;;;;;;;3.78;3.47;;;;;;;0.29;58.21;101407.75;686319;28;46474;-64
2021/01/17 00:09:03;;;;;;;3.70;3.40;;;;;;;0.28;58.08;101414.03;686709;28;20967;-64
2021/01/17 00:09:24;;;;;;;3.75;3.45;;;;;;;0.28;58.15;101415.81;686596;28;45260;-63
2021/01/17 00:09:46;;;;;;;3.92;3.53;;;;;;;0.28;57.93;101427.34;686628;28;22615;-63
2021/01/17 00:10:09;;;;;;;4.40;3.87;;;;;;;0.27;58.04;101420.31;687151;28;23594;-63
2021/01/17 00:10:31;;;;;;;4.57;4.07;;;;;;;0.27;58.06;101416.78;685243;28;92283;-63
2021/01/17 00:10:52;;;;;;;4.35;3.80;;;;;;;0.27;57.91;101424.75;685789;28;44384;-63
2021/01/17 00:11:14;;;;;;;4.13;3.72;;;;;;;0.26;57.89;101426.53;686910;28;17668;-62
2021/01/17 00:11:35;;;;;;;4.07;3.78;;;;;;;0.25;58.13;101413.34;687453;28;11093;-63
2021/01/17 00:11:56;;;;;;;4.20;3.80;;;;;;;0.27;58.09;101419.44;686131;28;46352;-64
2021/01/17 00:12:18;;;;;;;5.28;4.00;;;;;;;0.27;58.03;101424.75;687737;28;7825;-63
2021/01/17 00:12:40;;;;;;;4.07;3.75;;;;;;;0.26;58.20;101415.91;686293;28;44366;-64
2021/01/17 00:13:02;;;;;;;4.20;3.70;;;;;;;0.26;58.09;101417.72;686867;28;37213;-64
2021/01/17 00:13:24;;;;;;;4.20;3.67;;;;;;;0.26;58.10;101415.06;686524;28;46378;-64
2021/01/17 00:13:45;;;;;;;4.13;3.70;;;;;;;0.27;58.20;101425.63;686020;28;45901;-64
2021/01/17 00:14:06;;;;;;;4.30;3.90;;;;;;;0.26;58.09;101425.72;687425;28;9785;-64
2021/01/17 00:14:27;;;;;;;4.50;4.10;;;;;;;0.24;58.00;101409.00;687345;28;22412;-64
2021/01/17 00:14:49;;;;;;;4.85;3.95;;;;;;;0.25;57.78;101413.34;686817;28;21543;-63
2021/01/17 00:15:12;;;;;;;4.22;3.83;;;;;;;0.23;57.73;101409.94;685914;28;46683;-64
2021/01/17 00:15:33;;;;;;;4.90;3.72;;;;;;;0.25;57.82;101418.66;686159;28;69738;-63
2021/01/17 00:15:54;;;;;;;4.10;3.75;;;;;;;0.25;58.14;101411.56;686952;28;22975;-62
2021/01/17 00:16:16;;;;;;;4.22;3.83;;;;;;;0.24;58.12;101417.81;686894;28;22460;-63
2021/01/17 00:16:38;;;;;;;3.90;3.50;;;;;;;0.21;57.96;101406.53;686216;28;46353;-64
2021/01/17 00:17:03;;;;;;;3.90;3.50;;;;;;;0.24;57.93;101409.84;686962;28;39149;-63
2021/01/17 00:17:24;;;;;;;3.60;3.30;;;;;;;0.23;57.95;101421.41;686187;28;45113;-62
2021/01/17 00:17:46;;;;;;;4.10;3.70;;;;;;;0.23;57.92;101417.91;686283;28;21569;-63
2021/01/17 00:18:08;;;;;;;3.70;3.40;;;;;;;0.22;57.99;101417.06;687546;28;27257;-63
2021/01/17 00:18:29;;;;;;;3.60;3.30;;;;;;;0.23;57.93;101418.75;686534;28;40107;-61
2021/01/17 00:18:50;;;;;;;3.80;3.40;;;;;;;0.22;57.83;101411.75;686514;28;21464;-62
2021/01/17 00:19:12;;;;;;;3.50;3.20;;;;;;;0.21;57.70;101407.38;687390;28;14196;-63
2021/01/17 00:19:34;;;;;;;3.55;3.25;;;;;;;0.22;57.76;101416.19;687972;28;930;-64
2021/01/17 00:19:56;;;;;;;3.60;3.30;;;;;;;0.20;57.71;101413.63;686952;28;23774;-64
2021/01/17 00:20:18;;;;;;;3.83;3.53;;;;;;;0.19;57.81;101414.59;686968;28;31642;-64
2021/01/17 00:20:39;;;;;;;3.80;3.50;;;;;;;0.17;57.94;101412.03;686289;28;47548;-62
2021/01/17 00:21:01;;;;;;;4.10;3.72;;;;;;;0.19;57.74;101406.63;686118;28;44695;-62
2021/01/17 00:21:22;;;;;;;3.83;3.50;;;;;;;0.18;57.78;101415.53;686851;28;23689;-63
2021/01/17 00:21:44;;;;;;;3.90;3.50;;;;;;;0.18;57.98;101404.91;708390;23;21481;-65
2021/01/17 00:22:05;;;;;;;3.67;3.38;;;;;;;0.18;57.97;101412.88;683349;28;44798;-63
2021/01/17 00:22:27;;;;;;;3.90;3.60;;;;;;;0.18;57.81;101412.88;686534;28;44597;-64
2021/01/17 00:22:49;;;;;;;4.30;3.70;;;;;;;0.17;57.77;101409.38;687427;28;17836;-66
2021/01/17 00:23:10;;;;;;;5.35;3.83;;;;;;;0.15;57.74;101413.06;686206;28;46358;-64
2021/01/17 00:23:32;;;;;;;4.40;3.80;;;;;;;0.16;57.61;101412.97;686991;28;21547;-65
2021/01/17 00:23:56;;;;;;;4.25;3.72;;;;;;;0.16;57.87;101412.13;686673;28;36364;-65
2021/01/17 00:24:20;;;;;;;4.80;3.72;;;;;;;0.15;57.92;101416.56;687554;28;13358;-65
2021/01/17 00:24:41;;;;;;;4.15;3.80;;;;;;;0.16;57.74;101412.13;687165;28;23503;-65
2021/01/17 00:25:04;;;;;;;3.97;3.60;;;;;;;0.15;57.81;101416.56;686715;28;36046;-64
2021/01/17 00:25:25;;;;;;;3.92;3.60;;;;;;;0.13;58.03;101407.84;686101;28;46482;-65
2021/01/17 00:25:47;;;;;;;3.50;3.20;;;;;;;0.15;57.50;101415.72;687870;28;1284;-64
2021/01/17 00:26:09;;;;;;;4.00;3.60;;;;;;;0.14;57.86;101406.03;687278;28;23617;-64
2021/01/17 00:26:34;;;;;;;4.03;3.67;;;;;;;0.13;57.80;101407.00;688090;28;853;-65
2021/01/17 00:27:00;;;;;;;3.88;3.58;;;;;;;0.14;58.10;101411.34;685817;28;60603;-65
2021/01/17 00:27:22;;;;;;;4.50;3.75;;;;;;;0.14;58.08;101408.69;686183;28;46474;-65
2021/01/17 00:27:45;;;;;;;5.13;3.80;;;;;;;0.12;57.78;101411.44;686194;28;45264;-64
2021/01/17 00:28:06;;;;;;;4.55;3.47;;;;;;;0.13;57.78;101412.31;686336;28;46376;-65
2021/01/17 00:28:28;;;;;;;3.80;3.45;;;;;;;0.12;57.70;101416.75;687337;28;21558;-64
2021/01/17 00:28:49;;;;;;;3.80;3.50;;;;;;;0.12;57.75;101407.94;686495;28;34466;-65
2021/01/17 00:29:10;;;;;;;3.72;3.42;;;;;;;0.11;57.68;101409.75;687083;28;21554;-65
2021/01/17 00:29:31;;;;;;;3.70;3.40;;;;;;;0.11;57.53;101406.22;686171;28;46319;-65
2021/01/17 00:29:53;;;;;;;3.90;3.60;;;;;;;0.10;57.68;101410.69;687098;28;22402;-64
2021/01/17 00:30:15;;;;;;;3.80;3.50;;;;;;;0.11;57.61;101404.44;687427;28;16782;-65
2021/01/17 00:30:36;;;;;;;3.67;3.38;;;;;;;0.11;57.63;101406.22;686426;28;44771;-65
2021/01/17 00:30:57;;;;;;;4.10;3.30;;;;;;;0.10;57.64;101408.03;686653;28;41347;-64
2021/01/17 00:31:19;;;;;;;3.67;3.17;;;;;;;0.09;57.62;101405.47;687315;28;21171;-65
2021/01/17 00:31:40;;;;;;;3.75;3.25;;;;;;;0.09;57.60;101403.66;687005;28;16736;-64
2021/01/17 00:32:02;;;;;;;4.03;3.70;;;;;;;0.08;57.58;101404.63;683122;28;44439;-64
2021/01/17 00:32:23;;;;;;;3.92;3.63;;;;;;;0.07;57.55;101405.56;684642;28;22498;-65
2021/01/17 00:32:47;;;;;;;4.38;3.97;;;;;;;0.07;57.33;101410.88;683729;28;44381;-63
2021/01/17 00:33:09;;;;;;;3.80;3.50;;;;;;;0.07;57.70;101404.72;682170;28;90746;-65
2021/01/17 00:33:30;;;;;;;3.50;3.20;;;;;;;0.06;57.63;101398.53;683345;28;45220;-65
2021/01/17 00:33:51;;;;;;;3.60;3.30;;;;;;;0.07;57.70;101404.72;684569;28;21979;-64
2021/01/17 00:34:13;;;;;;;3.88;3.50;;;;;;;0.05;57.66;101402.16;684631;28;22406;-64
2021/01/17 00:34:34;;;;;;;3.72;3.40;;;;;;;0.05;57.69;101396.84;684282;28;21508;-64
2021/01/17 00:34:56;;;;;;;3.47;3.17;;;;;;;0.05;57.84;101401.28;683468;28;46071;-64
2021/01/17 00:35:17;;;;;;;4.22;3.70;;;;;;;0.05;57.89;101401.28;684288;28;22321;-64
2021/01/17 00:35:38;;;;;;;4.00;3.60;;;;;;;0.04;57.91;101400.44;683547;28;46334;-64
2021/01/17 00:36:00;;;;;;;4.03;3.58;;;;;;;0.02;58.13;101397.03;684572;28;23547;-64
2021/01/17 00:36:21;;;;;;;4.13;3.80;;;;;;;0.06;58.13;101395.88;684626;28;23464;-65
2021/01/17 00:36:43;;;;;;;3.90;3.60;;;;;;;0.05;58.02;101406.59;683770;28;45048;-64
2021/01/17 00:37:04;;;;;;;3.95;3.55;;;;;;;0.04;57.70;101407.56;684671;28;23371;-64
2021/01/17 00:37:26;;;;;;;4.10;3.70;;;;;;;0.04;58.00;101403.09;683627;28;44417;-63
2021/01/17 00:37:50;;;;;;;3.97;3.58;;;;;;;0.03;57.85;101401.38;684278;28;22413;-64
2021/01/17 00:38:12;;;;;;;3.78;3.47;;;;;;;0.03;58.02;101397.88;682225;28;91128;-65
2021/01/17 00:38:36;;;;;;;3.75;3.45;;;;;;;0.03;58.13;101404.03;684848;28;14418;-64
2021/01/17 00:38:57;;;;;;;3.67;3.38;;;;;;;0.02;57.94;101401.47;684227;28;37239;-64
2021/01/17 00:39:19;;;;;;;3.30;3.05;;;;;;;0.01;57.75;101402.44;683931;28;22380;-65
2021/01/17 00:39:40;;;;;;;4.13;3.83;;;;;;;0.01;57.83;101394.47;684033;28;28388;-64
2021/01/17 00:40:03;;;;;;;4.20;3.80;;;;;;;0.01;57.98;101397.13;684275;28;23674;-64
2021/01/17 00:40:25;;;;;;;4.18;3.78;;;;;;;-0.01;57.88;101406.03;685198;28;984;-64
2021/01/17 00:40:46;;;;;;;3.90;3.55;;;;;;;-0.01;57.84;101397.22;683417;28;46467;-64
2021/01/17 00:41:08;;;;;;;3.97;3.58;;;;;;;-0.02;58.06;101401.69;685038;28;942;-65
2021/01/17 00:41:30;;;;;;;4.28;3.88;;;;;;;-0.01;58.20;101403.38;683540;28;44378;-64
2021/01/17 00:41:51;;;;;;;3.70;3.40;;;;;;;-0.01;58.11;101399.88;683686;28;44408;-65
2021/01/17 00:42:14;;;;;;;3.30;3.00;;;;;;;-0.01;58.13;101405.19;684583;28;18110;-65
2021/01/17 00:42:35;;;;;;;4.63;3.53;;;;;;;-0.02;57.90;101400.81;682566;28;68600;-64
2021/01/17 00:42:58;;;;;;;4.03;3.63;;;;;;;-0.01;58.08;101399.88;684147;28;15102;-65
2021/01/17 00:43:19;;;;;;;4.00;3.70;;;;;;;-0.02;58.21;101401.69;682966;28;69449;-64
2021/01/17 00:43:40;;;;;;;4.10;3.80;;;;;;;-0.02;58.01;101401.69;684556;28;14185;-64
2021/01/17 00:44:02;;;;;;;3.60;3.30;;;;;;;-0.03;58.11;101405.28;684215;28;22474;-65
2021/01/17 00:44:24;;;;;;;3.50;3.20;;;;;;;-0.03;58.09;101397.31;683016;28;67593;-65
2021/01/17 00:44:45;;;;;;;3.80;3.50;;;;;;;-0.03;58.00;101399.13;684430;28;22432;-65
2021/01/17 00:45:07;;;;;;;4.05;3.70;;;;;;;-0.02;58.14;101401.69;684957;28;1257;-65
2021/01/17 00:45:29;;;;;;;3.90;3.50;;;;;;;-0.03;58.04;101405.28;682858;28;46430;-65
2021/01/17 00:45:50;;;;;;;3.67;3.38;;;;;;;-0.02;58.05;101398.16;680607;29;44370;-65
2021/01/17 00:46:12;;;;;;;4.20;3.58;;;;;;;-0.03;58.11;101399.97;677742;29;45704;-65
2021/01/17 00:46:37;;;;;;;3.90;3.50;;;;;;;-0.04;57.94;101400.91;679067;29;22402;-64
2021/01/17 00:46:59;;;;;;;3.65;3.35;;;;;;;-0.03;57.93;101399.13;674537;29;137765;-64
2021/01/17 00:47:21;;;;;;;4.13;3.63;;;;;;;-0.03;58.21;101401.78;675312;29;44900;-65
2021/01/17 00:47:43;;;;;;;4.28;3.88;;;;;;;-0.03;58.10;101401.78;677596;29;22391;-64
2021/01/17 00:48:05;;;;;;;4.82;3.92;;;;;;;-0.03;57.98;101394.66;679200;29;45379;-63
2021/01/17 00:48:27;;;;;;;4.30;3.75;;;;;;;-0.03;58.07;101401.78;678177;29;45272;-65
2021/01/17 00:48:49;;;;;;;4.95;3.78;;;;;;;-0.03;58.08;101392.00;674067;29;69830;-65
2021/01/17 00:49:10;;;;;;;4.72;3.63;;;;;;;-0.02;58.12;101400.81;674739;29;22403;-65
2021/01/17 00:49:32;;;;;;;4.47;3.88;;;;;;;-0.03;58.18;101401.78;676010;29;32261;-64
2021/01/17 00:49:54;;;;;;;4.17;3.77;;;;;;;-0.03;58.22;101391.16;672561;29;19586;-64
2021/01/17 00:50:17;;;;;;;4.70;3.80;;;;;;;-0.03;58.24;101397.31;672277;29;69428;-65
2021/01/17 00:50:38;;;;;;;5.18;3.80;;;;;;;-0.03;58.20;101394.66;676307;29;44313;-63
2021/01/17 00:51:02;;;;;;;3.97;3.67;;;;;;;-0.03;58.20;101397.31;675268;29;92368;-65
2021/01/17 00:51:24;;;;;;;3.63;3.33;;;;;;;-0.01;58.22;101399.88;677924;29;46437;-64
2021/01/17 00:51:54;;;;;;;3.97;3.67;;;;;;;-0.03;58.25;101391.16;677359;29;59973;-65
2021/01/17 00:52:17;;;;;;;4.40;3.78;;;;;;;-0.04;58.37;101400.06;677443;29;65601;-65
2021/01/17 00:52:39;;;;;;;4.28;3.80;;;;;;;-0.05;58.05;101385.94;674134;29;69549;-64
2021/01/17 00:53:00;;;;;;;4.53;4.07;;;;;;;-0.05;58.06;101393.91;679082;29;939;-64
2021/01/17 00:53:31;;;;;;;4.18;3.78;;;;;;;-0.07;57.99;101390.44;671575;29;138110;-65
2021/01/17 00:53:53;;;;;;;3.92;3.55;;;;;;;-0.04;58.41;101392.09;676863;29;46395;-64
2021/01/17 00:54:14;;;;;;;4.47;4.07;;;;;;;-0.05;58.36;101393.91;676301;29;21423;-65
2021/01/17 00:54:37;;;;;;;4.82;3.88;;;;;;;-0.06;58.55;101392.19;678244;29;68641;-64
2021/01/17 00:54:59;;;;;;;4.50;4.10;;;;;;;-0.05;58.41;101393.91;681715;29;21511;-64
2021/01/17 00:55:20;;;;;;;4.93;4.50;;;;;;;-0.06;58.38;101391.34;681316;29;22075;-65
2021/01/17 00:55:42;;;;;;;5.05;4.50;;;;;;;-0.06;58.45;101393.97;677776;29;46394;-65
2021/01/17 00:56:12;;;;;;;5.00;4.50;;;;;;;-0.06;58.46;101388.69;674468;29;138139;-65
2021/01/17 00:56:34;;;;;;;4.95;4.18;;;;;;;-0.07;58.64;101393.09;677501;29;46334;-64
2021/01/17 00:56:56;;;;;;;4.68;4.05;;;;;;;-0.06;58.61;101392.19;677958;29;46455;-65
2021/01/17 00:57:20;;;;;;;4.35;3.90;;;;;;;-0.06;58.64;101389.53;672810;29;92379;-64
2021/01/17 00:57:41;;;;;;;4.30;3.80;;;;;;;-0.07;58.78;101385.16;674707;29;46345;-65
2021/01/17 00:58:07;;;;;;;4.32;3.92;;;;;;;-0.07;58.62;101390.44;675831;29;92146;-65
2021/01/17 00:58:29;;;;;;;4.80;4.40;;;;;;;-0.07;58.78;101385.16;677860;29;69187;-66
2021/01/17 00:58:59;;;;;;;5.78;4.70;;;;;;;-0.07;58.85;101381.66;677363;29;133920;-64
2021/01/17 00:59:21;;;;;;;5.10;4.60;;;;;;;-0.07;58.77;101384.31;680492;29;6741;-65
2021/01/17 00:59:44;;;;;;;5.10;4.60;;;;;;;-0.07;58.93;101386.94;676280;29;67466;-65
2021/01/17 01:00:09;;;;;;;5.88;4.70;;;;;;;-0.07;58.99;101393.09;676318;29;42601;-64
2021/01/17 01:00:40;;;;;;;6.72;4.90;;;;;;;-0.08;58.86;101383.47;671379;29;132253;-63
2021/01/17 01:01:11;;;;;;;5.43;4.93;;;;;;;-0.08;59.12;101383.47;670313;29;136267;-65
2021/01/17 01:01:37;;;;;;;6.05;4.90;;;;;;;-0.08;59.29;101380.81;671917;29;92097;-63
2021/01/17 01:01:58;;;;;;;5.95;5.07;;;;;;;-0.07;59.23;101387.81;673811;29;70294;-65
2021/01/17 01:02:19;;;;;;;6.10;4.95;;;;;;;-0.08;59.26;101382.59;675393;29;46602;-65
2021/01/17 01:02:42;;;;;;;6.00;5.20;;;;;;;-0.08;59.25;101383.47;678463;29;21549;-63
2021/01/17 01:03:03;;;;;;;5.63;4.93;;;;;;;-0.09;59.25;101379.09;678479;29;67854;-65
2021/01/17 01:03:24;;;;;;;5.32;4.82;;;;;;;-0.08;59.25;101379.94;682729;28;22501;-64
2021/01/17 01:03:46;;;;;;;5.85;4.88;;;;;;;-0.08;59.21;101378.16;684499;28;15033;-66
2021/01/17 01:04:08;;;;;;;6.35;4.75;;;;;;;-0.09;59.42;101376.44;683467;28;45373;-65
2021/01/17 01:04:30;;;;;;;6.15;4.80;;;;;;;-0.07;59.32;101379.84;683502;28;42731;-64
2021/01/17 01:04:51;;;;;;;6.22;4.97;;;;;;;-0.07;59.23;101373.69;684470;28;22553;-64
2021/01/17 01:05:13;;;;;;;6.20;5.05;;;;;;;-0.08;59.57;101375.50;683566;28;45262;-66
2021/01/17 01:05:35;;;;;;;6.20;4.97;;;;;;;-0.07;59.29;101377.19;683355;28;46380;-64
2021/01/17 01:05:56;;;;;;;6.05;4.75;;;;;;;-0.07;59.41;101373.69;683159;28;46456;-65
2021/01/17 01:06:18;;;;;;;5.50;4.97;;;;;;;-0.08;59.31;101378.16;684379;28;21550;-64
2021/01/17 01:06:39;;;;;;;5.85;5.22;;;;;;;-0.08;59.30;101370.19;683704;28;45308;-65
2021/01/17 01:07:01;;;;;;;6.32;5.28;;;;;;;-0.08;59.45;101382.59;684530;28;22744;-65
2021/01/17 01:07:25;;;;;;;7.57;5.45;;;;;;;-0.08;59.39;101379.94;682751;28;45430;-66
2021/01/17 01:07:47;;;;;;;6.90;5.25;;;;;;;-0.09;59.33;101379.09;680986;28;113757;-65
2021/01/17 01:08:08;;;;;;;5.90;5.30;;;;;;;-0.09;59.33;101378.25;684289;28;21557;-65
2021/01/17 01:08:30;;;;;;;6.22;5.40;;;;;;;-0.09;59.31;101367.63;684207;28;22412;-65
2021/01/17 01:08:51;;;;;;;6.88;5.15;;;;;;;-0.09;59.41;101375.59;682140;29;911;-65
2021/01/17 01:09:15;;;;;;;5.93;4.88;;;;;;;-0.10;59.43;101372.06;681563;29;22403;-64
2021/01/17 01:09:36;;;;;;;6.25;4.90;;;;;;;-0.10;59.48;101374.72;679790;29;71693;-65
2021/01/17 01:09:57;;;;;;;6.45;5.22;;;;;;;-0.11;59.43;101366.84;681326;29;21518;-63
2021/01/17 01:10:19;;;;;;;5.85;5.05;;;;;;;-0.10;59.45;101379.19;680959;28;45426;-63
2021/01/17 01:10:40;;;;;;;6.63;5.20;;;;;;;-0.11;59.58;101377.44;682399;28;22390;-65
2021/01/17 01:11:01;;;;;;;6.20;5.10;;;;;;;-0.11;59.44;101373.03;684114;28;23447;-64
2021/01/17 01:11:23;;;;;;;5.60;5.03;;;;;;;-0.12;59.53;101373.09;683308;28;44427;-64
2021/01/17 01:11:45;;;;;;;5.63;5.03;;;;;;;-0.11;59.49;101378.31;684099;28;21559;-66
2021/01/17 01:12:06;;;;;;;5.75;5.05;;;;;;;-0.09;59.64;101380.88;682902;28;46260;-65
2021/01/17 01:12:34;;;;;;;6.03;5.30;;;;;;;-0.12;59.47;101376.59;683249;28;60878;-65
2021/01/17 01:12:55;;;;;;;6.22;5.18;;;;;;;-0.12;59.69;101376.59;684533;28;23524;-64
2021/01/17 01:13:17;;;;;;;6.20;5.30;;;;;;;-0.12;59.53;101375.75;684442;28;22278;-64
2021/01/17 01:13:39;;;;;;;5.85;5.15;;;;;;;-0.11;59.77;101374.78;682553;28;69395;-62
2021/01/17 01:14:00;;;;;;;5.85;5.25;;;;;;;-0.11;59.81;101380.09;684268;28;23535;-65
2021/01/17 01:14:21;;;;;;;5.90;5.30;;;;;;;-0.12;59.62;101375.75;684150;28;23506;-65
2021/01/17 01:14:43;;;;;;;6.63;5.55;;;;;;;-0.12;59.75;101381.91;683793;28;42106;-64
2021/01/17 01:15:06;;;;;;;6.13;5.30;;;;;;;-0.12;59.65;101370.44;684421;28;22590;-65
2021/01/17 01:15:27;;;;;;;5.70;4.93;;;;;;;-0.12;59.67;101381.06;682016;28;67503;-64
2021/01/17 01:15:48;;;;;;;6.55;5.13;;;;;;;-0.12;59.80;101373.09;684013;28;39237;-65
2021/01/17 01:16:11;;;;;;;6.00;5.40;;;;;;;-0.12;59.68;101381.06;684562;28;22401;-65
2021/01/17 01:16:33;;;;;;;6.78;5.32;;;;;;;-0.12;59.76;101375.75;682726;28;68954;-64
2021/01/17 01:16:56;;;;;;;6.25;4.88;;;;;;;-0.13;59.69;101374.88;684964;28;936;-64
2021/01/17 01:17:17;;;;;;;6.03;5.43;;;;;;;-0.13;59.55;101368.75;684430;28;14371;-64
2021/01/17 01:17:38;;;;;;;6.00;5.40;;;;;;;-0.14;59.66;101370.53;684110;28;23312;-65
2021/01/17 01:17:59;;;;;;;6.10;5.50;;;;;;;-0.13;59.63;101377.53;683449;28;44383;-65
2021/01/17 01:18:21;;;;;;;6.35;5.53;;;;;;;-0.13;59.76;101371.38;684402;28;22543;-64
2021/01/17 01:18:43;;;;;;;6.60;5.53;;;;;;;-0.13;59.83;101368.75;683954;28;39750;-65
2021/01/17 01:19:04;;;;;;;7.25;5.45;;;;;;;-0.14;59.82;101373.19;684523;28;23451;-64
2021/01/17 01:19:26;;;;;;;7.18;5.28;;;;;;;-0.14;59.69;101372.31;683696;28;46302;-64
2021/01/17 01:19:55;;;;;;;6.95;5.57;;;;;;;-0.16;59.88;101375.06;683268;28;61399;-64
2021/01/17 01:20:17;;;;;;;6.18;5.57;;;;;;;-0.16;60.09;101366.25;683885;28;41681;-65
2021/01/17 01:20:38;;;;;;;6.20;5.60;;;;;;;-0.16;59.89;101363.59;684944;28;895;-65
2021/01/17 01:20:59;;;;;;;6.07;5.47;;;;;;;-0.15;60.11;101362.66;683427;28;45260;-63
2021/01/17 01:21:24;;;;;;;5.55;4.97;;;;;;;-0.17;59.97;101372.50;684369;28;22281;-65
2021/01/17 01:21:46;;;;;;;5.43;4.93;;;;;;;-0.17;59.87;101373.38;680021;28;114746;-65
2021/01/17 01:22:07;;;;;;;5.88;5.22;;;;;;;-0.16;60.12;101368.91;683230;28;46307;-66
2021/01/17 01:22:29;;;;;;;6.40;5.05;;;;;;;-0.16;59.96;101363.59;684490;28;24255;-65
2021/01/17 01:22:50;;;;;;;6.05;5.45;;;;;;;-0.16;59.85;101372.41;684135;28;22419;-65
2021/01/17 01:23:11;;;;;;;6.75;5.15;;;;;;;-0.17;59.75;101370.72;683430;28;45218;-64
2021/01/17 01:23:33;;;;;;;7.38;5.00;;;;;;;-0.19;59.78;101370.81;684253;28;21620;-65
2021/01/17 01:23:54;;;;;;;5.88;5.07;;;;;;;-0.18;59.88;101369.00;683540;28;46326;-65
2021/01/17 01:24:16;;;;;;;5.70;5.10;;;;;;;-0.17;59.96;101361.88;684539;28;17210;-64
2021/01/17 01:24:37;;;;;;;5.38;4.85;;;;;;;-0.17;60.04;101362.75;684443;28;24375;-65
2021/01/17 01:24:59;;;;;;;5.60;5.07;;;;;;;-0.16;59.93;101366.25;684019;28;33952;-64
2021/01/17 01:25:20;;;;;;;6.88;5.40;;;;;;;-0.18;59.90;101366.34;684939;28;946;-64
2021/01/17 01:25:42;;;;;;;7.35;5.30;;;;;;;-0.18;59.81;101366.34;684050;28;23360;-64
2021/01/17 01:26:03;;;;;;;8.40;5.40;;;;;;;-0.18;59.91;101371.66;684165;28;23710;-65
2021/01/17 01:26:25;;;;;;;6.55;5.10;;;;;;;-0.19;59.77;101372.59;683647;28;46292;-65
2021/01/17 01:26:47;;;;;;;6.90;4.90;;;;;;;-0.18;59.79;101366.34;683865;28;40310;-65
2021/01/17 01:27:11;;;;;;;6.65;5.05;;;;;;;-0.19;59.75;101364.63;683828;28;33539;-65
2021/01/17 01:27:32;;;;;;;8.05;6.00;;;;;;;-0.19;59.79;101364.63;681728;28;93158;-64
2021/01/17 01:27:53;;;;;;;6.22;5.18;;;;;;;-0.20;59.65;101362.94;684161;28;22096;-65
2021/01/17 01:28:15;;;;;;;5.88;5.00;;;;;;;-0.20;59.86;101363.78;684295;28;20859;-65
2021/01/17 01:28:37;;;;;;;6.55;5.47;;;;;;;-0.20;59.90;101362.94;680648;29;44986;-64
2021/01/17 01:28:58;;;;;;;6.25;5.43;;;;;;;-0.20;59.89;101357.63;678691;29;33582;-65
2021/01/17 01:29:20;;;;;;;6.30;5.43;;;;;;;-0.19;59.76;101367.28;679065;29;22137;-65
2021/01/17 01:29:41;;;;;;;6.53;4.93;;;;;;;-0.20;59.70;101363.78;677813;29;46204;-65
2021/01/17 01:30:04;;;;;;;6.38;5.05;;;;;;;-0.19;59.72;101359.31;678914;29;15924;-65
2021/01/17 01:30:26;;;;;;;6.93;5.25;;;;;;;-0.20;59.77;101363.78;678221;29;68472;-65
2021/01/17 01:30:47;;;;;;;7.15;5.43;;;;;;;-0.20;59.58;101358.47;681256;28;46427;-65
2021/01/17 01:31:08;;;;;;;5.97;5.20;;;;;;;-0.19;59.80;101357.53;684140;28;21529;-64
2021/01/17 01:31:30;;;;;;;5.10;4.60;;;;;;;-0.19;59.74;101360.19;684266;28;22220;-65
2021/01/17 01:31:52;;;;;;;5.85;4.70;;;;;;;-0.18;59.79;101361.03;683368;28;44810;-64
2021/01/17 01:32:13;;;;;;;6.10;5.07;;;;;;;-0.18;59.83;101361.03;683846;28;22354;-65
2021/01/17 01:32:34;;;;;;;6.88;5.03;;;;;;;-0.17;59.75;101357.47;683601;28;47074;-65
2021/01/17 01:32:56;;;;;;;6.95;5.15;;;;;;;-0.19;59.64;101359.31;684544;28;21667;-63
2021/01/17 01:33:17;;;;;;;6.72;5.20;;;;;;;-0.19;59.72;101367.28;683455;28;44439;-65
2021/01/17 01:33:38;;;;;;;7.00;5.40;;;;;;;-0.19;59.74;101357.53;684181;28;21335;-66
2021/01/17 01:34:00;;;;;;;5.72;5.10;;;;;;;-0.19;59.63;101356.66;683406;28;22384;-63
2021/01/17 01:34:21;;;;;;;6.38;4.95;;;;;;;-0.19;59.80;101354.88;683469;28;46433;-66
2021/01/17 01:34:43;;;;;;;6.10;4.63;;;;;;;-0.19;59.75;101357.53;684225;28;23484;-65
2021/01/17 01:35:05;;;;;;;5.53;4.57;;;;;;;-0.19;59.75;101360.19;683445;28;46202;-65
2021/01/17 01:35:27;;;;;;;6.00;4.82;;;;;;;-0.21;59.61;101359.41;683656;28;46358;-65
2021/01/17 01:35:48;;;;;;;6.40;5.10;;;;;;;-0.22;59.54;101355.06;683000;28;45118;-65
2021/01/17 01:36:17;;;;;;;6.32;5.00;;;;;;;-0.23;59.48;101360.47;684180;28;23591;-64
2021/01/17 01:36:39;;;;;;;7.03;5.55;;;;;;;-0.23;59.69;101360.47;680254;28;138019;-65
2021/01/17 01:37:01;;;;;;;7.43;5.60;;;;;;;-0.23;59.83;101360.47;682594;28;71445;-64
2021/01/17 01:37:23;;;;;;;6.13;5.18;;;;;;;-0.22;59.88;101355.06;684558;28;22756;-64
2021/01/17 01:37:45;;;;;;;5.65;5.05;;;;;;;-0.24;59.74;101358.75;684864;28;866;-64
2021/01/17 01:38:08;;;;;;;5.55;4.82;;;;;;;-0.23;59.86;101352.50;685115;28;1668;-65
2021/01/17 01:38:29;;;;;;;6.50;5.28;;;;;;;-0.24;59.81;101361.41;684437;28;22589;-65
2021/01/17 01:38:51;;;;;;;5.25;4.72;;;;;;;-0.24;59.71;101356.94;684638;28;8902;-64
2021/01/17 01:39:13;;;;;;;5.85;5.05;;;;;;;-0.26;59.71;101358.00;683449;28;45355;-65
2021/01/17 01:39:34;;;;;;;6.05;4.90;;;;;;;-0.25;59.58;101360.56;683649;28;46330;-64
2021/01/17 01:39:56;;;;;;;5.90;5.03;;;;;;;-0.25;59.79;101357.03;683737;28;45884;-64
2021/01/17 01:40:17;;;;;;;5.75;4.78;;;;;;;-0.26;59.62;101361.50;684645;28;14292;-64
2021/01/17 01:40:38;;;;;;;5.68;4.82;;;;;;;-0.27;59.95;101358.94;684765;28;12138;-64
2021/01/17 01:40:59;;;;;;;6.03;5.07;;;;;;;-0.27;59.70;101359.78;684247;28;21667;-65
2021/01/17 01:41:25;;;;;;;7.70;5.07;;;;;;;-0.27;59.73;101354.47;683332;28;45336;-64
2021/01/17 01:41:47;;;;;;;5.53;4.93;;;;;;;-0.28;59.80;101351.91;680373;28;138323;-64
2021/01/17 01:42:08;;;;;;;5.93;4.90;;;;;;;-0.27;60.37;101357.13;684013;28;21560;-63
2021/01/17 01:42:30;;;;;;;7.18;5.05;;;;;;;-0.27;59.91;101353.63;683255;28;46287;-64
2021/01/17 01:42:51;;;;;;;6.15;4.90;;;;;;;-0.27;59.91;101364.25;684070;28;23462;-65
2021/01/17 01:43:13;;;;;;;7.15;5.43;;;;;;;-0.26;59.91;101360.66;683574;28;44396;-65
2021/01/17 01:43:34;;;;;;;7.57;5.38;;;;;;;-0.26;59.98;101360.66;684342;28;22422;-63
2021/01/17 01:43:56;;;;;;;6.05;4.95;;;;;;;-0.28;60.03;101352.78;684524;28;22379;-65
2021/01/17 01:44:18;;;;;;;5.63;4.97;;;;;;;-0.27;59.93;101362.44;682609;28;69396;-66
2021/01/17 01:44:39;;;;;;;6.50;5.20;;;;;;;-0.27;60.06;101357.13;683997;28;21554;-65